Time;durP1;ratioP1;P1;durP2;ratioP2;P2;SDS_P1;SDS_P2;PMS_P1;PMS_P2;Temp;Humidity;BMP_temperature;BMP_pressure;BME280_temperature;BME280_humidity;BME280_pressure;Samples;Min_cycle;Max_cycle;Signal;HPM_P1;HPM_P2
2022/10/19 00:01:25;;;;;;;8.43;4.95;;;10.40;99.90;;;10.34;100.00;98972.69;5007018;28;117897;-74
2022/10/19 00:03:55;;;;;;;9.18;4.93;;;10.40;99.90;;;10.32;100.00;98969.47;5021562;28;129789;-74
2022/10/19 00:06:26;;;;;;;10.00;4.38;;;10.30;99.90;;;10.31;100.00;98984.16;5021917;28;129539;-72
2022/10/19 00:08:57;;;;;;;10.15;5.22;;;10.40;99.90;;;10.27;100.00;98983.22;5022237;28;120067;-74
2022/10/19 00:11:29;;;;;;;9.13;5.47;;;10.40;99.90;;;10.27;100.00;98988.66;5021817;28;119419;-73
2022/10/19 00:14:00;;;;;;;10.25;4.80;;;10.30;99.90;;;10.25;100.00;98980.84;5020149;28;129810;-74
2022/10/19 00:16:33;;;;;;;10.52;5.25;;;10.30;99.90;;;10.25;100.00;98969.16;5021334;28;129512;-74
2022/10/19 00:19:05;;;;;;;12.43;5.07;;;10.20;99.90;;;10.19;100.00;98959.59;5003697;28;119185;-74
2022/10/19 00:21:34;;;;;;;8.63;4.57;;;10.30;99.90;;;10.19;100.00;98954.19;5021619;28;119434;-72
2022/10/19 00:24:02;;;;;;;10.15;5.10;;;10.20;99.90;;;10.19;100.00;98943.34;5021158;28;129899;-74
2022/10/19 00:26:33;;;;;;;8.35;4.88;;;10.20;99.90;;;10.16;100.00;98946.69;5021438;28;129707;-74
2022/10/19 00:29:02;;;;;;;9.98;5.35;;;10.20;99.90;;;10.12;100.00;98943.06;5021486;28;119423;-74
2022/10/19 00:31:31;;;;;;;9.63;5.60;;;10.10;99.90;;;10.05;100.00;98938.09;4989503;28;118644;-75
2022/10/19 00:33:59;;;;;;;11.57;5.00;;;10.10;99.90;;;10.08;100.00;98943.69;5022676;28;131656;-73
2022/10/19 00:36:31;;;;;;;9.57;5.20;;;10.20;99.90;;;10.05;100.00;98933.50;5005384;28;129182;-74
2022/10/19 00:39:01;;;;;;;14.05;4.93;;;10.20;99.90;;;10.05;100.00;98938.09;5020702;28;121958;-74
2022/10/19 00:41:34;;;;;;;11.73;5.63;;;10.10;99.90;;;10.00;100.00;98936.38;5005279;28;121477;-74
2022/10/19 00:44:06;;;;;;;11.32;5.25;;;10.10;99.90;;;9.94;100.00;98929.53;5007140;28;129136;-74
2022/10/19 00:46:37;;;;;;;8.60;5.45;;;10.10;99.90;;;9.86;100.00;98938.44;5023068;28;129731;-76
2022/10/19 00:49:13;;;;;;;10.57;5.25;;;10.10;99.90;;;9.88;100.00;98933.53;5022921;28;118736;-76
2022/10/19 00:51:45;;;;;;;10.45;4.65;;;10.00;99.90;;;9.86;100.00;98935.72;4992807;28;118468;-75
2022/10/19 00:54:14;;;;;;;11.82;5.47;;;10.00;99.90;;;9.85;100.00;98945.78;5021145;28;130404;-75
2022/10/19 00:56:46;;;;;;;14.13;5.40;;;10.00;99.90;;;9.87;100.00;98937.34;5022853;28;129928;-74
2022/10/19 00:59:17;;;;;;;8.52;4.57;;;9.90;99.90;;;9.86;100.00;98935.72;5024808;28;119958;-75
2022/10/19 01:01:48;;;;;;;10.90;5.05;;;9.90;99.90;;;9.84;100.00;98935.25;5026450;28;118400;-75
2022/10/19 01:04:17;;;;;;;11.73;5.38;;;9.90;99.90;;;9.81;100.00;98933.97;5021204;28;129901;-75
2022/10/19 01:06:45;;;;;;;15.13;5.85;;;9.90;99.90;;;9.75;100.00;98929.06;5022178;28;130319;-76
2022/10/19 01:09:13;;;;;;;10.60;5.05;;;9.90;99.90;;;9.70;100.00;98928.09;5021570;28;119921;-74
2022/10/19 01:11:55;;;;;;;10.68;5.05;;;9.80;99.90;;;9.63;100.00;98922.38;5006639;28;119462;-74
2022/10/19 01:14:38;;;;;;;10.15;5.05;;;9.70;99.90;;;9.60;100.00;98917.59;5025277;28;130116;-75
2022/10/19 01:17:15;;;;;;;14.38;5.43;;;9.60;99.90;;;9.49;100.00;98902.75;5008192;28;129027;-74
2022/10/19 01:20:28;;;;;;;11.70;5.07;;;9.50;99.90;;;9.41;100.00;98903.56;5005511;28;119755;-75
2022/10/19 01:23:19;;;;;;;13.40;5.25;;;9.50;99.90;;;9.38;100.00;98915.03;5007285;28;118251;-77
2022/10/19 01:25:59;;;;;;;13.77;4.88;;;9.50;99.90;;;9.37;100.00;98911.53;5006483;28;129518;-77
2022/10/19 01:28:45;;;;;;;7.32;4.45;;;9.50;99.90;;;9.31;100.00;98905.47;5007258;28;127953;-73
2022/10/19 01:31:25;;;;;;;9.97;4.90;;;9.50;99.90;;;9.25;100.00;98912.13;5021719;28;122644;-73
2022/10/19 01:34:01;;;;;;;13.88;5.68;;;9.50;99.90;;;9.22;100.00;98899.22;5022596;28;121837;-74
2022/10/19 01:36:37;;;;;;;17.52;4.53;;;9.50;99.90;;;9.25;100.00;98906.72;5020276;28;130195;-73
2022/10/19 01:39:13;;;;;;;12.85;4.63;;;9.40;99.90;;;9.17;100.00;98911.00;5020590;28;129912;-75
2022/10/19 01:41:50;;;;;;;11.57;4.63;;;9.30;99.90;;;9.14;100.00;98908.16;5021233;27;119738;-77
2022/10/19 01:44:28;;;;;;;13.90;4.55;;;9.30;99.90;;;9.10;100.00;98909.88;5022242;28;119751;-75
2022/10/19 01:47:04;;;;;;;14.65;5.20;;;9.30;99.90;;;9.04;100.00;98916.56;5006136;28;129849;-75
2022/10/19 01:49:40;;;;;;;12.50;4.40;;;9.30;99.90;;;9.04;100.00;98911.13;5006663;28;129217;-73
2022/10/19 01:52:12;;;;;;;;;;;9.30;99.90;;;8.97;100.00;98909.69;5006626;28;119029;-73
2022/10/19 01:54:47;;;;;;;11.18;4.60;;;9.20;99.90;;;8.99;100.00;98904.78;4987332;28;118122;-76
2022/10/19 01:57:21;;;;;;;10.57;4.35;;;9.20;99.90;;;8.95;100.00;98898.41;5000190;28;129989;-74
2022/10/19 01:59:51;;;;;;;8.38;4.00;;;9.20;99.90;;;9.03;100.00;98909.56;4998365;28;129126;-74
2022/10/19 02:02:23;;;;;;;15.10;4.68;;;9.30;99.90;;;8.99;100.00;98902.06;5022822;28;119864;-73
2022/10/19 02:04:53;;;;;;;11.00;4.72;;;9.20;99.90;;;8.99;100.00;98899.38;5006907;28;119079;-76
2022/10/19 02:07:25;;;;;;;11.27;4.00;;;9.30;99.90;;;8.97;100.00;98901.56;5021729;28;129721;-75
2022/10/19 02:09:53;;;;;;;15.32;4.03;;;9.30;99.90;;;8.96;100.00;98900.00;5022001;28;129783;-76
2022/10/19 02:12:24;;;;;;;13.95;3.95;;;9.30;99.90;;;8.94;100.00;98902.22;5023275;28;119465;-76
2022/10/19 02:14:58;;;;;;;12.55;3.97;;;9.30;99.90;;;8.91;100.00;98902.88;5021845;28;119514;-74
2022/10/19 02:17:35;;;;;;;10.13;3.97;;;9.30;99.90;;;8.83;100.00;98887.38;5021763;28;128745;-73
2022/10/19 02:20:06;;;;;;;10.25;4.15;;;9.20;99.90;;;8.80;100.00;98879.91;5021779;28;129434;-74
2022/10/19 02:22:35;;;;;;;12.20;4.10;;;9.10;99.90;;;8.79;100.00;98867.50;5002809;28;121878;-74
2022/10/19 02:25:04;;;;;;;9.23;3.58;;;9.10;99.90;;;8.87;100.00;98864.00;5022527;28;121888;-75
2022/10/19 02:27:34;;;;;;;14.48;4.28;;;9.20;99.90;;;8.91;100.00;98867.69;5021447;28;130046;-76
2022/10/19 02:30:02;;;;;;;9.73;4.10;;;9.20;99.90;;;9.03;100.00;98867.06;5020938;28;129604;-71
2022/10/19 02:32:33;;;;;;;16.08;4.68;;;9.30;99.90;;;9.04;100.00;98865.13;5022184;28;120758;-71
2022/10/19 02:35:01;;;;;;;11.13;4.38;;;9.30;99.90;;;9.13;100.00;98860.53;5006328;28;119475;-71
2022/10/19 02:37:30;;;;;;;9.18;3.78;;;9.30;99.90;;;9.06;100.00;98857.50;5020005;28;129716;-71
2022/10/19 02:39:59;;;;;;;16.05;5.00;;;9.20;99.90;;;8.97;100.00;98852.84;5018174;28;129740;-72
2022/10/19 02:42:34;;;;;;;14.82;4.35;;;9.10;99.90;;;8.93;100.00;98846.50;5021677;28;122789;-72
2022/10/19 02:45:12;;;;;;;11.90;5.15;;;9.10;99.90;;;8.96;100.00;98840.47;5005169;28;119518;-76
2022/10/19 02:47:47;;;;;;;9.73;4.40;;;9.10;99.90;;;8.97;100.00;98842.03;5002385;28;129458;-75
2022/10/19 02:50:16;;;;;;;14.73;4.28;;;9.10;99.90;;;8.99;100.00;98845.25;5005729;28;129015;-72
2022/10/19 02:52:45;;;;;;;12.55;4.57;;;9.10;99.90;;;9.04;100.00;98851.59;5005620;28;119319;-73
2022/10/19 02:55:13;;;;;;;12.25;5.38;;;9.10;99.90;;;9.06;100.00;98833.94;5009112;28;118332;-73
2022/10/19 02:57:42;;;;;;;13.02;4.32;;;9.10;99.90;;;9.01;100.00;98836.81;5005936;28;130434;-72
2022/10/19 03:00:12;;;;;;;12.25;4.72;;;9.20;99.90;;;9.05;100.00;98837.75;5022980;28;130571;-75
2022/10/19 03:02:42;;;;;;;10.40;4.50;;;9.20;99.90;;;9.03;100.00;98829.16;5025152;28;119672;-75
2022/10/19 03:05:11;;;;;;;13.07;5.05;;;9.20;99.90;;;9.07;100.00;98834.72;5024702;28;119368;-74
2022/10/19 03:07:40;;;;;;;13.52;4.93;;;9.20;99.90;;;9.10;100.00;98834.09;5006786;28;130321;-75
2022/10/19 03:10:09;;;;;;;12.60;4.80;;;9.20;99.90;;;9.12;100.00;98821.06;5026741;28;129511;-75
2022/10/19 03:12:38;;;;;;;15.77;4.95;;;9.30;99.90;;;9.07;100.00;98823.91;5023098;28;121851;-75
2022/10/19 03:15:08;;;;;;;13.52;4.53;;;9.30;99.90;;;9.13;100.00;98811.78;5023560;28;121622;-72
2022/10/19 03:17:36;;;;;;;14.77;5.55;;;9.30;99.90;;;9.20;100.00;98839.19;5022026;28;130590;-73
2022/10/19 03:20:08;;;;;;;16.80;6.30;;;9.30;99.90;;;9.18;100.00;98819.78;5023369;28;129573;-74
2022/10/19 03:22:37;;;;;;;13.93;5.53;;;9.30;99.90;;;9.17;100.00;98820.88;5028062;28;119077;-78
2022/10/19 03:25:07;;;;;;;12.40;5.53;;;9.30;99.90;;;9.22;100.00;98820.72;5011204;28;117684;-77
2022/10/19 03:27:35;;;;;;;13.60;5.53;;;9.30;99.90;;;9.18;100.00;98819.78;5026501;28;129639;-75
2022/10/19 03:30:05;;;;;;;10.90;5.15;;;9.30;99.90;;;9.15;100.00;98809.59;5027255;28;129693;-74
2022/10/19 03:32:34;;;;;;;14.68;5.53;;;9.30;99.90;;;9.23;100.00;98806.06;5027634;28;119315;-74
2022/10/19 03:35:02;;;;;;;15.35;5.95;;;9.30;99.90;;;9.25;100.00;98803.84;5011270;28;118722;-76
2022/10/19 03:37:32;;;;;;;13.63;5.63;;;9.40;99.90;;;9.21;100.00;98800.19;5024906;28;130431;-72
2022/10/19 03:40:01;;;;;;;14.23;6.72;;;9.40;99.90;;;9.28;100.00;98808.63;5025379;28;129368;-74
2022/10/19 03:42:29;;;;;;;19.00;5.75;;;9.40;99.90;;;9.28;100.00;98808.63;5025313;28;119781;-71
2022/10/19 03:44:58;;;;;;;16.42;6.15;;;9.40;99.90;;;9.25;100.00;98787.59;5024333;28;119187;-73
2022/10/19 03:47:26;;;;;;;12.05;5.43;;;9.40;99.90;;;9.31;100.00;98786.31;5025408;28;129727;-74
2022/10/19 03:49:54;;;;;;;12.20;5.30;;;9.50;99.90;;;9.37;100.00;98797.00;5009920;28;129578;-74
2022/10/19 03:52:23;;;;;;;12.23;6.30;;;9.40;99.90;;;9.38;100.00;98779.63;5024156;28;119587;-74
2022/10/19 03:54:53;;;;;;;13.00;6.55;;;9.50;99.90;;;9.39;100.00;98778.50;5024087;28;119757;-71
2022/10/19 03:57:21;;;;;;;18.70;6.03;;;9.50;99.90;;;9.36;100.00;98777.22;5008082;28;129259;-76
2022/10/19 03:59:50;;;;;;;12.38;5.85;;;9.50;99.90;;;9.35;100.00;98770.25;5024500;28;129755;-77
2022/10/19 04:02:19;;;;;;;15.82;5.97;;;9.60;99.90;;;9.38;100.00;98757.94;5023070;28;121082;-75
2022/10/19 04:04:47;;;;;;;12.27;5.50;;;9.60;99.90;;;9.46;100.00;98760.66;5007893;28;121678;-73
2022/10/19 04:07:16;;;;;;;13.57;5.70;;;9.50;99.90;;;9.41;100.00;98757.31;5005545;28;130323;-76
2022/10/19 04:09:44;;;;;;;13.13;5.90;;;9.60;99.90;;;9.40;100.00;98747.63;5025349;28;129381;-73
2022/10/19 04:12:14;;;;;;;21.40;5.82;;;9.60;99.90;;;9.39;100.00;98743.31;5024860;28;121210;-72
2022/10/19 04:14:43;;;;;;;14.13;5.30;;;9.60;99.90;;;9.48;100.00;98746.78;5009668;28;118241;-74
2022/10/19 04:17:12;;;;;;;13.20;5.13;;;9.60;99.90;;;9.48;100.00;98746.78;5022734;28;130234;-77
2022/10/19 04:19:41;;;;;;;13.63;6.13;;;9.60;99.90;;;9.47;100.00;98739.78;5024197;28;129357;-78
2022/10/19 04:22:09;;;;;;;14.93;4.75;;;9.60;99.90;;;9.46;100.00;98740.91;5024242;28;120055;-75
2022/10/19 04:24:38;;;;;;;15.13;5.22;;;9.60;99.90;;;9.42;100.00;98742.66;5008353;28;119417;-77
2022/10/19 04:27:06;;;;;;;12.45;4.70;;;9.60;99.90;;;9.49;100.00;98732.94;5020833;28;129820;-74
2022/10/19 04:29:36;;;;;;;15.38;4.93;;;9.60;99.90;;;9.52;100.00;98737.69;5006604;28;129816;-72
2022/10/19 04:32:05;;;;;;;14.07;4.97;;;9.60;99.90;;;9.53;100.00;98733.06;4990244;28;119608;-73
2022/10/19 04:34:34;;;;;;;10.15;4.78;;;9.60;99.90;;;9.48;100.00;98733.25;5021630;28;119494;-70
2022/10/19 04:37:02;;;;;;;9.02;4.20;;;9.60;99.90;;;9.45;100.00;98723.06;5002733;28;129879;-72
2022/10/19 04:39:31;;;;;;;13.10;4.32;;;9.60;99.90;;;9.42;100.00;98726.41;5006502;28;128698;-72
2022/10/19 04:41:59;;;;;;;11.55;4.55;;;9.60;99.90;;;9.47;100.00;98712.69;5004493;28;119455;-70
2022/10/19 04:44:27;;;;;;;10.90;4.38;;;9.60;99.90;;;9.47;100.00;98709.97;5009477;28;119427;-72
2022/10/19 04:46:57;;;;;;;9.48;3.90;;;9.50;99.90;;;9.48;100.00;98692.63;5001334;28;131275;-73
2022/10/19 04:49:26;;;;;;;9.30;4.10;;;9.60;99.90;;;9.46;100.00;98694.88;4986192;28;129021;-78
2022/10/19 04:51:54;;;;;;;8.30;3.78;;;9.60;99.90;;;9.46;100.00;98700.28;5000096;28;122603;-74
2022/10/19 04:54:23;;;;;;;11.32;4.40;;;9.60;99.90;;;9.47;100.00;98691.84;4985900;28;121339;-74
2022/10/19 04:56:52;;;;;;;13.85;4.90;;;9.60;99.90;;;9.53;100.00;98695.16;5000755;28;130137;-71
2022/10/19 04:59:21;;;;;;;10.90;4.47;;;9.60;99.90;;;9.54;100.00;98688.63;4986243;28;128815;-76
2022/10/19 05:01:49;;;;;;;10.80;4.63;;;9.70;99.90;;;9.58;100.00;98697.66;5000641;28;120487;-74
2022/10/19 05:04:20;;;;;;;12.65;4.15;;;9.70;99.90;;;9.56;100.00;98689.09;4983518;28;119476;-73
2022/10/19 05:06:48;;;;;;;10.18;4.32;;;9.70;99.90;;;9.45;100.00;98694.06;5002156;28;130597;-74
2022/10/19 05:09:18;;;;;;;10.35;4.65;;;9.60;99.90;;;9.46;100.00;98697.56;5002172;28;129811;-73
2022/10/19 05:11:49;;;;;;;12.52;4.40;;;9.60;99.90;;;9.46;100.00;98700.28;5001946;28;119555;-76
2022/10/19 05:14:17;;;;;;;9.48;3.85;;;9.60;99.90;;;9.53;100.00;98687.03;5001284;28;119604;-73
2022/10/19 05:16:46;;;;;;;8.52;3.90;;;9.60;99.90;;;9.50;100.00;98687.66;4999793;28;130135;-76
2022/10/19 05:19:14;;;;;;;8.90;4.05;;;9.70;99.90;;;9.53;100.00;98692.44;5001962;28;129423;-75
2022/10/19 05:21:44;;;;;;;10.07;4.20;;;9.70;99.90;;;9.52;100.00;98671.88;5001562;28;120018;-76
2022/10/19 05:24:13;;;;;;;15.00;3.72;;;9.70;99.90;;;9.59;100.00;98683.00;4984279;28;119395;-75
2022/10/19 05:26:42;;;;;;;12.93;4.43;;;9.80;99.90;;;9.60;100.00;98681.09;5002284;28;129777;-79
2022/10/19 05:29:13;;;;;;;10.70;4.00;;;9.70;99.90;;;9.62;100.00;98671.53;4986831;28;128322;-76
2022/10/19 05:31:42;;;;;;;7.63;3.05;;;9.80;99.90;;;9.68;100.00;98677.56;5001316;28;120329;-77
2022/10/19 05:34:11;;;;;;;6.57;3.30;;;9.70;99.90;;;9.71;100.00;98680.41;5003003;28;119539;-75
2022/10/19 05:36:40;;;;;;;9.00;3.30;;;9.80;99.90;;;9.73;100.00;98682.03;5002714;28;130289;-77
2022/10/19 05:39:15;;;;;;;8.48;3.63;;;9.80;99.90;;;9.75;100.00;98682.47;5001419;28;129973;-73
2022/10/19 05:41:44;;;;;;;8.73;3.63;;;9.80;99.90;;;9.78;100.00;98671.00;5000879;28;122014;-73
2022/10/19 05:44:16;;;;;;;9.55;3.13;;;9.80;99.90;;;9.78;100.00;98674.50;5002057;28;121773;-74
2022/10/19 05:46:44;;;;;;;10.57;3.30;;;9.90;99.90;;;9.81;100.00;98675.75;4982587;28;129674;-75
2022/10/19 05:49:13;;;;;;;8.20;3.15;;;9.90;99.90;;;9.84;100.00;98665.06;4986082;28;128591;-76
2022/10/19 05:51:42;;;;;;;7.93;3.28;;;9.90;99.90;;;9.80;100.00;98656.00;5000851;28;119606;-78
2022/10/19 05:54:13;;;;;;;9.63;3.15;;;9.90;99.90;;;9.80;100.00;98656.00;5001829;28;119361;-77
2022/10/19 05:56:42;;;;;;;9.40;3.53;;;9.80;99.90;;;9.92;100.00;98652.56;5000413;28;130459;-73
2022/10/19 05:59:15;;;;;;;9.32;3.15;;;9.90;99.90;;;9.99;100.00;98652.88;5000398;28;129981;-75
2022/10/19 06:01:45;;;;;;;10.40;3.70;;;9.90;99.90;;;10.00;100.00;98651.75;4986146;28;118888;-76
2022/10/19 06:04:14;;;;;;;9.82;3.45;;;10.00;99.90;;;10.00;100.00;98642.81;4986029;28;119050;-71
2022/10/19 06:06:43;;;;;;;10.18;3.38;;;9.90;99.90;;;10.06;100.00;98653.13;4980423;28;130556;-71
2022/10/19 06:09:13;;;;;;;8.13;4.00;;;10.00;99.90;;;10.15;100.00;98642.25;4985706;28;128418;-77
2022/10/19 06:11:43;;;;;;;10.13;3.63;;;10.00;99.90;;;10.10;100.00;98647.88;4969279;28;119281;-75
2022/10/19 06:14:14;;;;;;;10.82;3.58;;;10.10;99.90;;;10.01;100.00;98656.03;5001020;28;119277;-75
2022/10/19 06:16:44;;;;;;;11.77;3.67;;;10.00;99.90;;;10.04;100.00;98649.97;5000303;28;130413;-78
2022/10/19 06:19:13;;;;;;;11.43;3.78;;;10.00;99.90;;;10.06;100.00;98642.28;4969289;28;128686;-75
2022/10/19 06:21:41;;;;;;;8.23;3.22;;;10.00;99.90;;;10.23;100.00;98635.16;4969115;28;118569;-73
2022/10/19 06:24:13;;;;;;;5.90;2.53;;;10.10;99.90;;;10.22;100.00;98633.56;4985433;28;118386;-77
2022/10/19 06:26:41;;;;;;;9.95;2.92;;;10.10;99.90;;;10.26;100.00;98639.94;5000755;28;129754;-76
2022/10/19 06:29:10;;;;;;;7.18;3.25;;;10.10;99.90;;;10.34;100.00;98627.47;5001700;28;129554;-77
2022/10/19 06:31:38;;;;;;;7.10;2.85;;;10.20;99.90;;;10.38;100.00;98631.09;5002973;28;122068;-76
2022/10/19 06:34:07;;;;;;;7.93;2.88;;;10.10;99.90;;;10.22;100.00;98622.72;5003849;28;121897;-77
2022/10/19 06:36:35;;;;;;;7.90;2.97;;;10.00;99.90;;;10.07;100.00;98627.63;5003814;28;129558;-77
2022/10/19 06:39:04;;;;;;;6.40;3.35;;;9.80;99.90;;;9.99;100.00;98625.75;5003398;28;129360;-76
2022/10/19 06:41:34;;;;;;;8.15;3.42;;;9.80;99.90;;;10.02;100.00;98621.56;5003288;28;119763;-73
2022/10/19 06:44:19;;;;;;;6.43;2.63;;;9.80;99.90;;;9.94;100.00;98622.44;5005418;28;119371;-74
2022/10/19 06:46:48;;;;;;;11.63;3.53;;;9.80;99.90;;;9.92;100.00;98613.84;5007845;28;129770;-75
2022/10/19 06:49:16;;;;;;;4.88;2.70;;;9.90;99.90;;;10.10;100.00;98622.66;5024259;28;130095;-76
2022/10/19 06:51:45;;;;;;;5.60;2.58;;;10.00;99.90;;;10.32;100.00;98621.56;5023668;28;119322;-75
2022/10/19 06:54:14;;;;;;;9.38;2.60;;;10.10;99.90;;;10.35;100.00;98610.84;5008346;28;118590;-77
2022/10/19 06:56:44;;;;;;;8.50;3.38;;;10.10;99.90;;;10.52;100.00;98617.28;5022597;28;130618;-75
2022/10/19 06:59:13;;;;;;;7.65;2.60;;;10.20;99.90;;;10.34;100.00;98608.47;5021996;28;129660;-76
2022/10/19 07:01:41;;;;;;;6.45;2.72;;;10.10;99.90;;;10.46;100.00;98610.47;5023028;28;119702;-74
2022/10/19 07:04:09;;;;;;;6.25;2.28;;;10.10;99.90;;;10.38;100.00;98610.19;5023720;28;119418;-74
2022/10/19 07:06:38;;;;;;;5.97;2.97;;;10.10;99.90;;;10.74;100.00;98614.19;5022383;28;129838;-72
2022/10/19 07:09:06;;;;;;;6.75;2.40;;;10.40;99.90;;;10.70;100.00;98615.97;5022884;28;129330;-74
2022/10/19 07:11:34;;;;;;;6.22;2.30;;;10.30;99.90;;;10.43;100.00;98606.50;5022764;28;119529;-72
2022/10/19 07:14:04;;;;;;;4.53;2.20;;;10.10;99.90;;;10.53;100.00;98616.13;5022871;28;119212;-72
2022/10/19 07:16:33;;;;;;;6.07;2.45;;;10.10;99.90;;;10.75;100.00;98623.94;5021953;28;129874;-72
2022/10/19 07:19:01;;;;;;;5.78;2.00;;;10.20;99.90;;;10.41;100.00;98614.97;5024156;28;129360;-74
2022/10/19 07:21:29;;;;;;;6.78;2.33;;;10.00;99.90;;;10.23;100.00;98618.91;5020712;28;122226;-75
2022/10/19 07:23:58;;;;;;;4.60;2.65;;;9.80;99.90;;;10.08;100.00;98623.78;4992763;28;121125;-75
2022/10/19 07:26:29;;;;;;;7.18;3.53;;;9.60;99.90;;;9.81;100.00;98635.13;5022789;28;129985;-75
2022/10/19 07:28:58;;;;;;;8.65;3.45;;;9.40;99.90;;;9.58;100.00;98632.66;5022571;28;130366;-73
2022/10/19 07:31:30;;;;;;;7.85;5.13;;;9.30;99.90;;;9.41;100.00;98635.44;5022799;28;119549;-75
2022/10/19 07:34:01;;;;;;;4.78;2.50;;;9.20;99.90;;;9.36;100.00;98641.84;5022890;28;119433;-73
2022/10/19 07:36:34;;;;;;;4.57;1.33;;;9.20;99.90;;;9.31;100.00;98642.81;5004309;28;129861;-72
2022/10/19 07:39:04;;;;;;;6.05;1.60;;;9.30;99.90;;;9.30;100.00;98643.94;5001804;28;128219;-72
2022/10/19 07:41:33;;;;;;;6.13;1.50;;;9.30;99.90;;;9.62;100.00;98647.16;5020797;28;119489;-77
2022/10/19 07:44:03;;;;;;;3.45;1.50;;;9.50;99.90;;;10.21;100.00;98648.28;5002531;28;118762;-75
2022/10/19 07:46:35;;;;;;;3.53;1.75;;;9.80;99.90;;;10.47;100.00;98647.31;4985043;28;128793;-72
2022/10/19 07:49:08;;;;;;;3.15;1.65;;;10.00;99.90;;;10.74;100.00;98644.03;4989221;28;128585;-74
2022/10/19 07:51:37;;;;;;;3.25;1.20;;;10.10;99.90;;;10.64;100.00;98646.38;5006812;28;120345;-75
2022/10/19 07:54:05;;;;;;;2.47;1.17;;;10.00;99.90;;;10.43;100.00;98656.09;5018808;28;119309;-75
2022/10/19 07:56:35;;;;;;;2.75;1.40;;;9.90;99.90;;;10.01;100.00;98661.47;5003144;28;130263;-74
2022/10/19 07:59:04;;;;;;;3.15;1.40;;;9.70;91.10;;;10.29;100.00;98663.69;5007648;28;130030;-72
2022/10/19 08:01:41;;;;;;;4.43;2.35;;;9.80;78.90;;;10.43;100.00;98669.66;5014879;28;120676;-74
2022/10/19 08:04:10;;;;;;;4.40;2.42;;;9.90;61.10;;;10.48;100.00;98667.88;5012928;28;119259;-72
2022/10/19 08:06:38;;;;;;;4.00;1.90;;;10.00;53.60;;;10.41;100.00;98671.91;5006649;28;130079;-74
2022/10/19 08:09:07;;;;;;;3.13;1.73;;;9.80;49.80;;;10.34;100.00;98668.94;5001068;28;129415;-71
2022/10/19 08:11:36;;;;;;;2.63;1.27;;;9.90;69.90;;;10.40;100.00;98678.47;5000164;28;122112;-74
2022/10/19 08:14:05;;;;;;;3.47;1.20;;;9.90;69.80;;;10.12;100.00;98677.34;5001029;28;121985;-72
2022/10/19 08:16:39;;;;;;;2.65;1.60;;;9.60;90.00;;;9.87;100.00;98677.16;5001592;28;129818;-76
2022/10/19 08:19:11;;;;;;;2.03;1.08;;;9.50;76.30;;;9.99;100.00;98685.41;5001555;28;129485;-73
2022/10/19 08:21:42;;;;;;;1.92;1.20;;;9.60;75.30;;;10.14;100.00;98680.53;5002029;28;120118;-71
2022/10/19 08:24:13;;;;;;;2.33;1.33;;;9.80;90.00;;;10.01;100.00;98691.28;5001475;28;119569;-77
2022/10/19 08:26:42;;;;;;;3.13;1.60;;;9.70;90.10;;;10.08;100.00;98688.84;5001551;28;130231;-72
2022/10/19 08:29:13;;;;;;;2.00;0.93;;;9.60;76.00;;;10.15;100.00;98684.84;5001809;28;129454;-75
2022/10/19 08:31:44;;;;;;;3.08;1.48;;;9.50;82.20;;;10.48;100.00;98689.59;5001575;28;119576;-72
2022/10/19 08:34:14;;;;;;;2.88;1.30;;;9.80;90.00;;;10.36;100.00;98696.53;5002177;28;119274;-73
2022/10/19 08:36:44;;;;;;;2.72;1.60;;;9.70;76.10;;;10.33;100.00;98688.25;5002590;28;130605;-78
2022/10/19 08:39:13;;;;;;;4.35;2.10;;;9.80;62.40;;;10.51;100.00;98686.22;5021423;28;129284;-74
2022/10/19 08:41:59;;;;;;;2.88;1.60;;;9.80;66.60;;;10.82;99.77;98682.31;5022090;28;119637;-76
2022/10/19 08:45:09;;;;;;;2.10;1.07;;;9.90;33.20;;;10.52;100.00;98695.94;5020879;28;119661;-74
2022/10/19 08:47:59;;;;;;;3.65;1.75;;;9.80;35.00;;;10.38;100.00;98702.41;4980581;28;129660;-76
2022/10/19 08:50:36;;;;;;;4.43;2.30;;;9.90;37.40;;;10.23;100.00;98697.53;5001135;28;129703;-80
2022/10/19 08:53:08;;;;;;;3.80;1.48;;;9.70;36.70;;;9.90;100.00;98698.19;5002159;28;120128;-76
2022/10/19 08:55:55;;;;;;;4.07;2.08;;;9.50;38.50;;;9.95;100.00;98700.72;5002345;28;119826;-77
2022/10/19 08:58:39;;;;;;;5.97;2.30;;;9.60;54.60;;;9.73;100.00;98717.25;4981783;28;130459;-76
2022/10/19 09:01:15;;;;;;;2.88;1.30;;;9.50;27.90;;;9.63;100.00;98710.25;4967537;28;106566;-75
2022/10/19 09:03:50;;;;;;;3.30;1.67;;;9.40;37.80;;;9.83;100.00;98719.56;4980277;28;122422;-75
2022/10/19 09:06:28;;;;;;;2.70;1.50;;;9.50;33.80;;;9.95;100.00;98719.69;4981123;28;121936;-74
2022/10/19 09:08:58;;;;;;;3.70;2.00;;;9.50;17.90;;;9.82;100.00;98723.44;4966375;28;128631;-76
2022/10/19 09:11:32;;;;;;;2.95;1.38;;;9.40;16.00;;;9.75;100.00;98717.72;4982317;28;130629;-77
2022/10/19 09:14:10;;;;;;;3.50;1.52;;;9.40;10.70;;;9.85;99.11;98717.34;4980762;28;119521;-77
2022/10/19 09:16:39;;;;;;;3.00;1.42;;;9.60;2.30;;;9.81;98.02;98724.53;4982312;28;119430;-74
2022/10/19 09:19:24;;;;;;;4.43;1.38;;;9.50;1.00;;;9.65;99.23;98725.06;4999822;28;130442;-76
2022/10/19 09:21:57;;;;;;;2.72;1.38;;;9.50;1.00;;;10.06;99.36;98722.81;5000964;28;128998;-77
2022/10/19 09:24:36;;;;;;;4.90;2.80;;;9.80;1.00;;;10.60;94.38;98736.56;5000717;28;119789;-77
2022/10/19 09:27:15;;;;;;;5.93;2.95;;;10.00;1.00;;;10.63;93.38;98726.97;4981679;28;119229;-75
2022/10/19 09:29:50;;;;;;;3.58;1.48;;;9.90;1.00;;;10.51;92.06;98735.03;4980580;28;130038;-74
2022/10/19 09:32:24;;;;;;;3.90;1.60;;;9.70;1.00;;;10.21;90.45;98735.03;4963445;28;129487;-76
2022/10/19 09:34:59;;;;;;;4.18;1.80;;;9.70;1.00;;;10.43;90.29;98736.69;4981807;28;119974;-75
2022/10/19 09:37:29;;;;;;;7.13;2.50;;;9.90;1.00;;;10.33;89.25;98742.47;4981467;28;119046;-76
2022/10/19 09:39:57;;;;;;;5.00;1.90;;;9.80;1.00;;;10.50;90.11;98736.16;4980221;28;130811;-77
2022/10/19 09:42:29;;;;;;;2.70;1.20;;;10.10;1.00;;;10.51;88.65;98743.19;4998776;28;129296;-76
2022/10/19 09:45:00;;;;;;;2.70;0.90;;;10.00;1.00;;;10.55;89.26;98733.25;5001948;28;119893;-79
2022/10/19 09:47:35;;;;;;;2.70;1.40;;;10.00;1.00;;;10.36;89.80;98731.78;5002811;28;119479;-77
2022/10/19 09:50:21;;;;;;;0.77;0.60;;;9.90;1.00;;;10.00;91.20;98738.50;4986977;28;129112;-77
2022/10/19 09:52:51;;;;;;;1.65;1.02;;;9.70;1.00;;;9.71;95.61;98737.31;5002435;28;129348;-77
2022/10/19 09:55:36;;;;;;;5.72;1.40;;;9.50;1.00;;;9.51;97.05;98748.84;5000850;28;122058;-78
2022/10/19 09:58:16;;;;;;;1.95;0.73;;;9.30;1.00;;;9.46;97.55;98749.03;4971041;28;120440;-80
2022/10/19 10:00:49;;;;;;;3.45;1.05;;;9.30;1.00;;;9.26;95.09;98756.69;5001041;28;130301;-78
2022/10/19 10:03:28;;;;;;;4.10;1.15;;;9.10;1.00;;;9.05;100.00;98744.94;5001788;28;129577;-78
2022/10/19 10:06:02;;;;;;;0.98;0.60;;;8.90;1.00;;;9.14;100.00;98751.13;4985542;28;119826;-77
2022/10/19 10:08:34;;;;;;;3.03;1.20;;;8.90;18.70;;;9.13;100.00;98757.66;4986586;28;118539;-77
2022/10/19 10:11:10;;;;;;;3.50;1.20;;;8.90;9.90;;;9.20;100.00;98760.69;4986131;28;128555;-76
2022/10/19 10:13:41;;;;;;;1.35;0.70;;;9.00;11.30;;;9.28;100.00;98756.38;4969852;28;128360;-75
2022/10/19 10:16:14;;;;;;;2.00;1.08;;;9.10;10.30;;;9.35;100.00;98756.69;4985946;28;118058;-75
2022/10/19 10:18:54;;;;;;;4.60;1.60;;;9.10;3.80;;;9.57;98.89;98755.69;4986447;28;118728;-75
2022/10/19 10:21:30;;;;;;;5.63;2.33;;;9.30;1.00;;;9.40;99.50;98750.31;4981662;28;130350;-76
2022/10/19 10:24:04;;;;;;;4.38;2.08;;;9.30;1.00;;;9.66;95.72;98753.75;5001032;28;129425;-77
2022/10/19 10:26:38;;;;;;;5.50;2.70;;;9.40;1.00;;;10.10;95.15;98750.06;4982490;28;118929;-74
2022/10/19 10:29:19;;;;;;;4.75;2.42;;;9.80;1.00;;;10.64;88.23;98763.81;4999651;28;120012;-77
2022/10/19 10:31:49;;;;;;;4.13;1.95;;;10.00;1.00;;;11.42;84.25;98761.59;4981484;28;130433;-74